createdAt,value
2022-10-19T00:02:43.952Z,10.18
2022-10-19T00:07:45.351Z,10.98
2022-10-19T00:12:49.737Z,10.38
2022-10-19T00:17:51.207Z,10.30
2022-10-19T00:22:52.542Z,10.18
2022-10-19T00:27:53.978Z,11.75
2022-10-19T00:32:55.358Z,10.48
2022-10-19T00:37:56.745Z,10.65
2022-10-19T00:42:58.099Z,11.50
2022-10-19T00:47:59.454Z,11.15
2022-10-19T00:53:00.891Z,11.35
2022-10-19T00:58:02.999Z,12.32
2022-10-19T01:03:05.776Z,11.13
2022-10-19T01:08:08.896Z,11.15
2022-10-19T01:13:23.961Z,11.23
2022-10-19T01:18:44.435Z,10.15
2022-10-19T01:24:23.017Z,9.95
2022-10-19T01:30:01.675Z,10.32
2022-10-19T01:35:18.997Z,9.65
2022-10-19T01:40:41.754Z,10.30
2022-10-19T01:46:14.440Z,10.43
2022-10-19T01:51:21.852Z,9.88
2022-10-19T01:56:26.748Z,9.63
2022-10-19T02:01:31.188Z,10.77
2022-10-19T02:06:32.611Z,8.57
2022-10-19T02:11:37.099Z,9.50
2022-10-19T02:16:49.681Z,9.70
2022-10-19T02:21:52.308Z,9.52
2022-10-19T02:26:55.683Z,10.13
2022-10-19T02:31:57.123Z,9.45
2022-10-19T02:36:58.810Z,8.82
2022-10-19T02:42:11.940Z,9.55
2022-10-19T02:47:15.449Z,8.95
2022-10-19T02:52:16.817Z,9.77
2022-10-19T02:57:20.943Z,11.25
2022-10-19T03:02:22.294Z,10.55
2022-10-19T03:07:23.958Z,10.52
2022-10-19T03:12:25.384Z,10.55
2022-10-19T03:17:26.736Z,9.48
2022-10-19T03:22:28.106Z,10.40
2022-10-19T03:27:29.451Z,9.45
2022-10-19T03:32:30.807Z,10.48
2022-10-19T03:37:32.387Z,11.85
2022-10-19T03:42:34.068Z,11.98
2022-10-19T03:47:35.654Z,13.18
2022-10-19T03:52:37.190Z,11.75
2022-10-19T03:57:38.561Z,11.18
2022-10-19T04:02:39.904Z,11.13
2022-10-19T04:07:41.312Z,12.65
2022-10-19T04:12:42.809Z,11.15
2022-10-19T04:17:45.671Z,12.13
2022-10-19T04:22:52.875Z,11.13
2022-10-19T04:27:54.252Z,10.77
2022-10-19T04:32:55.649Z,12.15
2022-10-19T04:37:58.820Z,10.48
2022-10-19T04:43:00.163Z,10.57
2022-10-19T04:48:01.942Z,10.50
2022-10-19T04:53:03.464Z,10.45
2022-10-19T04:58:04.814Z,9.45
2022-10-19T05:03:06.221Z,10.40
2022-10-19T05:08:07.826Z,10.65
2022-10-19T05:13:09.183Z,10.13
2022-10-19T05:18:10.568Z,10.10
2022-10-19T05:23:11.947Z,10.48
2022-10-19T05:28:13.349Z,9.68
2022-10-19T05:33:14.713Z,9.65
2022-10-19T05:38:16.086Z,9.02
2022-10-19T05:43:17.433Z,8.60
2022-10-19T05:48:18.790Z,9.20
2022-10-19T05:53:20.677Z,7.78
2022-10-19T05:58:22.107Z,7.43
2022-10-19T06:03:24.570Z,6.10
2022-10-19T06:08:26.140Z,5.82
2022-10-19T06:13:27.547Z,7.68
2022-10-19T06:18:29.506Z,6.10
2022-10-19T06:23:32.195Z,5.60
2022-10-19T06:28:34.219Z,6.50
2022-10-19T06:33:35.594Z,5.60
2022-10-19T06:38:36.982Z,4.90
2022-10-19T06:43:38.353Z,4.85
2022-10-19T06:48:40.001Z,4.80
2022-10-19T06:53:41.389Z,4.93
2022-10-19T06:58:43.099Z,4.50
2022-10-19T07:03:44.584Z,4.60
2022-10-19T07:08:46.056Z,4.22
2022-10-19T07:13:47.503Z,4.68
2022-10-19T07:18:51.852Z,3.58
2022-10-19T07:23:53.354Z,4.18
2022-10-19T07:28:57.727Z,3.67
2022-10-19T07:34:01.396Z,4.15
2022-10-19T07:39:06.233Z,4.35
2022-10-19T07:44:09.010Z,4.03
2022-10-19T07:49:18.689Z,3.90
2022-10-19T07:54:20.933Z,4.00
2022-10-19T07:59:22.380Z,4.35
2022-10-19T08:09:53.296Z,5.10
2022-10-19T08:14:55.139Z,5.70
2022-10-19T08:19:56.572Z,4.95
2022-10-19T08:24:58.055Z,5.15
2022-10-19T08:29:59.399Z,6.03
2022-10-19T08:35:00.858Z,5.85
2022-10-19T08:40:02.442Z,5.72
2022-10-19T08:45:22.001Z,6.10
2022-10-19T08:50:33.537Z,6.03
2022-10-19T08:56:02.267Z,5.55
2022-10-19T09:01:16.901Z,5.18
2022-10-19T09:06:34.793Z,5.53
2022-10-19T09:11:44.396Z,5.93
2022-10-19T09:16:46.336Z,4.88
2022-10-19T09:21:56.640Z,5.75
2022-10-19T09:27:01.747Z,5.20
2022-10-19T09:32:05.828Z,4.97
2022-10-19T09:37:07.314Z,6.35
2022-10-19T09:42:32.935Z,5.60
2022-10-19T09:47:37.900Z,5.57
2022-10-19T09:52:41.497Z,4.72
2022-10-19T09:57:57.494Z,4.97
2022-10-19T10:02:58.952Z,3.90
2022-10-19T10:08:01.159Z,5.30
2022-10-19T10:13:03.047Z,3.47
2022-10-19T10:18:04.824Z,4.13
2022-10-19T10:23:06.646Z,3.90
2022-10-19T10:28:22.969Z,4.78
2022-10-19T10:33:40.318Z,3.85
2022-10-19T10:38:51.788Z,3.92
2022-10-19T10:44:02.319Z,3.50
2022-10-19T10:49:15.335Z,3.15
2022-10-19T10:54:31.222Z,3.63
2022-10-19T10:59:56.229Z,3.50
2022-10-19T11:05:03.690Z,3.40
2022-10-19T11:10:16.778Z,2.67
2022-10-19T11:20:45.040Z,2.80
2022-10-19T11:26:04.611Z,3.45
2022-10-19T11:31:29.755Z,2.58
2022-10-19T11:37:04.674Z,2.65
2022-10-19T11:42:37.361Z,3.70
2022-10-19T11:47:53.891Z,3.30
2022-10-19T11:53:04.104Z,3.23
2022-10-19T11:58:15.208Z,2.63
2022-10-19T12:03:51.887Z,3.15
2022-10-19T12:09:23.564Z,2.80
2022-10-19T12:14:30.208Z,2.63
2022-10-19T12:19:54.454Z,2.10
2022-10-19T12:25:00.407Z,2.25
2022-10-19T12:30:13.162Z,2.40
2022-10-19T12:35:42.485Z,1.90
2022-10-19T12:41:03.274Z,2.83
2022-10-19T12:46:16.716Z,2.38
2022-10-19T12:51:18.762Z,2.33
2022-10-19T12:56:25.673Z,2.65
2022-10-19T13:01:29.340Z,3.13
2022-10-19T13:06:34.467Z,2.45
2022-10-19T13:11:38.193Z,2.88
2022-10-19T13:16:56.128Z,3.45
2022-10-19T13:22:20.269Z,3.60
2022-10-19T13:27:26.458Z,3.08
2022-10-19T13:32:44.501Z,4.40
2022-10-19T13:37:46.182Z,3.22
2022-10-19T13:42:58.393Z,3.10
2022-10-19T13:48:13.883Z,2.60
2022-10-19T13:53:27.979Z,3.15
2022-10-19T13:58:50.270Z,2.60
2022-10-19T14:04:13.927Z,2.97
2022-10-19T14:09:24.959Z,2.60
2022-10-19T14:14:28.270Z,2.65
2022-10-19T14:19:32.798Z,2.33
2022-10-19T14:24:35.939Z,2.50
2022-10-19T14:29:47.327Z,3.53
2022-10-19T14:34:49.495Z,2.13
2022-10-19T14:40:04.248Z,2.05
2022-10-19T14:45:13.966Z,2.03
2022-10-19T14:50:15.548Z,2.40
2022-10-19T14:55:19.139Z,2.50
2022-10-19T15:00:22.987Z,2.13
2022-10-19T15:05:28.255Z,2.42
2022-10-19T15:10:43.930Z,2.20
2022-10-19T15:15:51.915Z,2.97
2022-10-19T15:21:15.628Z,2.30
2022-10-19T15:26:23.971Z,3.47
2022-10-19T15:31:28.609Z,2.80
2022-10-19T15:36:31.660Z,3.40
2022-10-19T15:41:38.228Z,3.60
2022-10-19T15:46:48.514Z,3.30
2022-10-19T15:51:50.570Z,3.40
2022-10-19T15:56:52.897Z,3.72
2022-10-19T16:01:56.054Z,4.22
2022-10-19T16:06:57.824Z,3.78
2022-10-19T16:11:59.282Z,4.05
2022-10-19T16:17:00.745Z,3.90
2022-10-19T16:22:02.156Z,5.32
2022-10-19T16:27:04.103Z,4.78
2022-10-19T16:32:05.685Z,6.05
2022-10-19T16:37:07.610Z,6.18
2022-10-19T16:42:09.244Z,6.75
2022-10-19T16:47:10.673Z,6.63
2022-10-19T16:52:15.188Z,6.93
2022-10-19T16:57:16.556Z,6.18
2022-10-19T17:02:21.858Z,7.18
2022-10-19T17:07:23.719Z,8.55
2022-10-19T17:12:25.107Z,8.15
2022-10-19T17:17:26.464Z,6.15
2022-10-19T17:22:27.812Z,6.57
2022-10-19T17:27:29.266Z,6.95
2022-10-19T17:32:30.607Z,6.22
2022-10-19T17:37:32.067Z,6.70
2022-10-19T17:42:36.396Z,6.80
2022-10-19T17:47:38.159Z,6.90
2022-10-19T17:52:39.780Z,6.47
2022-10-19T17:57:41.386Z,7.30
2022-10-19T18:02:46.030Z,6.72
2022-10-19T18:07:49.124Z,7.35
2022-10-19T18:12:50.478Z,12.57
2022-10-19T18:17:51.864Z,9.43
2022-10-19T18:22:53.360Z,8.20
2022-10-19T18:27:54.778Z,8.50
2022-10-19T18:32:56.143Z,7.82
2022-10-19T18:37:57.497Z,8.60
2022-10-19T18:42:58.852Z,9.25
2022-10-19T18:48:00.333Z,9.88
2022-10-19T18:53:01.736Z,9.30
2022-10-19T18:58:03.261Z,7.13
2022-10-19T19:03:04.683Z,8.38
2022-10-19T19:08:06.051Z,6.88
2022-10-19T19:13:07.962Z,7.05
2022-10-19T19:18:09.406Z,7.63
2022-10-19T19:23:10.800Z,6.85
2022-10-19T19:28:12.267Z,7.47
2022-10-19T19:33:14.218Z,7.13
2022-10-19T19:38:16.425Z,8.25
2022-10-19T19:43:19.889Z,7.70
2022-10-19T19:48:21.295Z,8.20
2022-10-19T19:53:22.921Z,7.95
2022-10-19T19:58:24.424Z,8.98
2022-10-19T20:03:25.870Z,7.80
2022-10-19T20:08:27.296Z,6.45
2022-10-19T20:13:28.804Z,7.18
2022-10-19T20:18:30.136Z,6.88
2022-10-19T20:23:32.568Z,6.90
2022-10-19T20:28:34.289Z,6.95
2022-10-19T20:33:37.915Z,5.68
2022-10-19T20:38:40.828Z,6.63
2022-10-19T20:43:42.236Z,6.75
2022-10-19T20:48:44.086Z,6.28
2022-10-19T20:53:47.765Z,7.00
2022-10-19T20:59:13.817Z,7.28
2022-10-19T21:04:15.969Z,6.43
2022-10-19T21:09:20.282Z,6.45
2022-10-19T21:14:28.716Z,6.15
2022-10-19T21:19:31.015Z,5.45
2022-10-19T21:24:35.318Z,5.95
2022-10-19T21:29:37.071Z,5.75
2022-10-19T21:34:38.426Z,5.68
2022-10-19T21:39:39.837Z,5.88
2022-10-19T21:44:41.196Z,5.28
2022-10-19T21:49:42.574Z,4.50
2022-10-19T21:54:43.937Z,4.63
2022-10-19T21:59:45.388Z,5.10
2022-10-19T22:04:46.740Z,4.80
2022-10-19T22:09:48.126Z,4.90
2022-10-19T22:14:49.540Z,4.78
2022-10-19T22:19:51.032Z,5.13
2022-10-19T22:24:53.272Z,4.82
2022-10-19T22:29:54.612Z,5.53
2022-10-19T22:34:55.949Z,4.70
2022-10-19T22:39:57.286Z,4.70
2022-10-19T22:44:58.644Z,4.68
2022-10-19T22:50:00.029Z,4.80
2022-10-19T22:55:01.423Z,4.22
2022-10-19T23:00:03.225Z,4.60
2022-10-19T23:05:04.930Z,4.13
2022-10-19T23:10:06.718Z,3.78
2022-10-19T23:15:08.866Z,4.15
2022-10-19T23:20:11.334Z,4.30
2022-10-19T23:25:12.666Z,3.97
2022-10-19T23:30:14.199Z,4.20
2022-10-19T23:35:15.543Z,4.20
2022-10-19T23:40:17.011Z,3.70
2022-10-19T23:45:19.232Z,3.47
2022-10-19T23:50:20.563Z,3.72
2022-10-19T23:55:21.941Z,3.70
